Altai Airport


Codes: ZMAT/LTI
Name: Altai Airport
City: Altai
Country: Mongolia
Elevation: 7260 ft.
Wikipedia:

Photos at Altai Airport


   Photos courtesy of SpottingLog. You can add your own sightings and photos by signing up for a free trial today.



No photos found.

Weather at Altai Airport


Time (UTC)DescriptionTempratureWindCloud coverageVisibilityPressureHumidity
16-Jun-2024 12:00Moderate Rain16°C0 mph, S96%10000m1008hPa51%
16-Jun-2024 15:00Scattered Clouds14°C2 mph, SW32%10000m1009hPa61%
16-Jun-2024 18:00Light Rain12°C4 mph, SW16%10000m1008hPa66%
16-Jun-2024 21:00Overcast Clouds12°C7 mph, SW100%10000m1008hPa69%
17-Jun-2024 00:00Overcast Clouds13°C11 mph, SW100%10000m1008hPa52%
17-Jun-2024 03:00Overcast Clouds16°C20 mph, SW98%10000m1007hPa36%
17-Jun-2024 06:00Broken Clouds18°C16 mph, W83%10000m1005hPa30%
17-Jun-2024 09:00Broken Clouds18°C18 mph, SW58%10000m1003hPa27%
17-Jun-2024 12:00Scattered Clouds14°C16 mph, W29%10000m1005hPa46%
17-Jun-2024 15:00Broken Clouds11°C9 mph, SW67%10000m1007hPa63%
17-Jun-2024 18:00Light Rain10°C4 mph, SW81%10000m1006hPa73%
17-Jun-2024 21:00Light Rain10°C4 mph, SW100%10000m1006hPa79%
18-Jun-2024 00:00Light Rain11°C4 mph, SW100%10000m1005hPa70%
18-Jun-2024 03:00Light Rain13°C11 mph, W22%10000m1005hPa62%
18-Jun-2024 06:00Light Rain14°C11 mph, W60%10000m1004hPa61%
18-Jun-2024 09:00Light Rain16°C11 mph, NW95%10000m1001hPa50%
18-Jun-2024 12:00Light Rain15°C11 mph, N93%10000m1001hPa56%
18-Jun-2024 15:00Light Rain13°C4 mph, N96%10000m1001hPa64%
18-Jun-2024 18:00Broken Clouds12°C2 mph, N78%10000m1002hPa66%
18-Jun-2024 21:00Overcast Clouds12°C2 mph, NW100%10000m1001hPa64%
19-Jun-2024 00:00Overcast Clouds14°C0 mph, SW99%10000m1000hPa57%
19-Jun-2024 03:00Overcast Clouds17°C7 mph, W100%10000m999hPa42%
19-Jun-2024 06:00Overcast Clouds20°C16 mph, W98%10000m997hPa33%
19-Jun-2024 09:00Scattered Clouds21°C11 mph, W42%10000m995hPa32%
19-Jun-2024 12:00Scattered Clouds20°C11 mph, NW39%10000m995hPa36%
19-Jun-2024 15:00Broken Clouds14°C9 mph, SW84%10000m1000hPa69%
19-Jun-2024 18:00Light Rain11°C7 mph, SW61%4690m1003hPa83%
19-Jun-2024 21:00Light Rain9°C4 mph, S100%7451m1004hPa92%
20-Jun-2024 00:00Light Rain8°C4 mph, SW100%10000m1005hPa88%
20-Jun-2024 03:00Light Rain6°C4 mph, SW100%10000m1007hPa88%
20-Jun-2024 06:00Light Rain6°C7 mph, SW100%7869m1008hPa86%
20-Jun-2024 09:00Moderate Rain4°C4 mph, W100%1129m1009hPa93%
20-Jun-2024 12:00Moderate Rain6°C13 mph, NW100%10000m1008hPa78%
20-Jun-2024 15:00Overcast Clouds8°C16 mph, N100%10000m1009hPa65%
20-Jun-2024 18:00Overcast Clouds6°C4 mph, NW98%10000m1010hPa73%
20-Jun-2024 21:00Overcast Clouds5°C2 mph, W100%10000m1011hPa75%
21-Jun-2024 00:00Overcast Clouds7°C2 mph, NE89%10000m1012hPa65%
21-Jun-2024 03:00Clear Sky11°C2 mph, NW7%10000m1010hPa46%
21-Jun-2024 06:00Clear Sky15°C4 mph, W4%10000m1009hPa35%
21-Jun-2024 09:00Clear Sky17°C7 mph, NW0%10000m1008hPa28%